sensor_id;sensor_type;location;lat;lon;timestamp;P1;durP1;ratioP1;P2;durP2;ratioP2
35312;SDS011;21425;50.454;30.466;2023-12-20T00:01:49;11.15;;;5.55;;
35312;SDS011;21425;50.454;30.466;2023-12-20T00:04:15;13.63;;;5.80;;
35312;SDS011;21425;50.454;30.466;2023-12-20T00:06:40;10.88;;;5.60;;
35312;SDS011;21425;50.454;30.466;2023-12-20T00:09:06;9.75;;;5.43;;
35312;SDS011;21425;50.454;30.466;2023-12-20T00:11:32;10.00;;;5.10;;
35312;SDS011;21425;50.454;30.466;2023-12-20T00:13:57;12.15;;;6.38;;
35312;SDS011;21425;50.454;30.466;2023-12-20T00:16:23;11.55;;;5.65;;
35312;SDS011;21425;50.454;30.466;2023-12-20T00:18:48;8.95;;;4.85;;
35312;SDS011;21425;50.454;30.466;2023-12-20T00:21:14;10.52;;;5.50;;
35312;SDS011;21425;50.454;30.466;2023-12-20T00:23:40;14.15;;;5.55;;
35312;SDS011;21425;50.454;30.466;2023-12-20T00:26:05;13.43;;;5.13;;
35312;SDS011;21425;50.454;30.466;2023-12-20T00:28:31;12.80;;;6.05;;
35312;SDS011;21425;50.454;30.466;2023-12-20T00:30:57;14.40;;;6.80;;
35312;SDS011;21425;50.454;30.466;2023-12-20T00:33:23;15.38;;;6.60;;
35312;SDS011;21425;50.454;30.466;2023-12-20T00:35:49;11.68;;;6.90;;
35312;SDS011;21425;50.454;30.466;2023-12-20T00:38:15;16.15;;;6.43;;
35312;SDS011;21425;50.454;30.466;2023-12-20T00:40:40;16.75;;;6.65;;
35312;SDS011;21425;50.454;30.466;2023-12-20T00:43:06;14.63;;;6.85;;
35312;SDS011;21425;50.454;30.466;2023-12-20T00:45:32;8.13;;;5.07;;
35312;SDS011;21425;50.454;30.466;2023-12-20T00:47:57;14.98;;;6.03;;
35312;SDS011;21425;50.454;30.466;2023-12-20T00:50:24;10.30;;;5.65;;
35312;SDS011;21425;50.454;30.466;2023-12-20T00:52:50;10.23;;;5.57;;
35312;SDS011;21425;50.454;30.466;2023-12-20T00:55:16;13.38;;;4.60;;
35312;SDS011;21425;50.454;30.466;2023-12-20T00:57:42;10.18;;;4.32;;
35312;SDS011;21425;50.454;30.466;2023-12-20T01:00:08;11.82;;;6.68;;
35312;SDS011;21425;50.454;30.466;2023-12-20T01:02:38;13.25;;;5.28;;
35312;SDS011;21425;50.454;30.466;2023-12-20T01:05:04;16.58;;;5.70;;
35312;SDS011;21425;50.454;30.466;2023-12-20T01:07:30;9.90;;;5.78;;
35312;SDS011;21425;50.454;30.466;2023-12-20T01:09:55;11.10;;;5.13;;
35312;SDS011;21425;50.454;30.466;2023-12-20T01:12:21;10.45;;;4.57;;
35312;SDS011;21425;50.454;30.466;2023-12-20T01:14:47;12.27;;;4.75;;
35312;SDS011;21425;50.454;30.466;2023-12-20T01:17:13;13.25;;;4.93;;
35312;SDS011;21425;50.454;30.466;2023-12-20T01:19:39;9.68;;;4.20;;
35312;SDS011;21425;50.454;30.466;2023-12-20T01:22:04;5.82;;;2.83;;
35312;SDS011;21425;50.454;30.466;2023-12-20T01:24:30;12.05;;;6.32;;
35312;SDS011;21425;50.454;30.466;2023-12-20T01:26:56;8.77;;;4.18;;
35312;SDS011;21425;50.454;30.466;2023-12-20T01:29:21;7.30;;;3.72;;
35312;SDS011;21425;50.454;30.466;2023-12-20T01:31:47;8.40;;;4.22;;
35312;SDS011;21425;50.454;30.466;2023-12-20T01:34:13;11.43;;;4.65;;
35312;SDS011;21425;50.454;30.466;2023-12-20T01:36:39;13.40;;;5.38;;
35312;SDS011;21425;50.454;30.466;2023-12-20T01:39:04;12.68;;;4.68;;
35312;SDS011;21425;50.454;30.466;2023-12-20T01:41:30;7.32;;;3.05;;
35312;SDS011;21425;50.454;30.466;2023-12-20T01:43:56;12.63;;;4.82;;
35312;SDS011;21425;50.454;30.466;2023-12-20T01:46:21;10.48;;;5.50;;
35312;SDS011;21425;50.454;30.466;2023-12-20T01:48:48;6.70;;;3.35;;
35312;SDS011;21425;50.454;30.466;2023-12-20T01:51:14;9.07;;;4.22;;
35312;SDS011;21425;50.454;30.466;2023-12-20T01:53:40;11.50;;;4.53;;
35312;SDS011;21425;50.454;30.466;2023-12-20T01:56:06;10.80;;;4.28;;
35312;SDS011;21425;50.454;30.466;2023-12-20T01:58:33;10.13;;;4.55;;
35312;SDS011;21425;50.454;30.466;2023-12-20T02:00:59;12.63;;;5.13;;
35312;SDS011;21425;50.454;30.466;2023-12-20T02:03:25;11.77;;;4.68;;
35312;SDS011;21425;50.454;30.466;2023-12-20T02:05:51;7.35;;;3.97;;
35312;SDS011;21425;50.454;30.466;2023-12-20T02:08:17;9.63;;;4.47;;
35312;SDS011;21425;50.454;30.466;2023-12-20T02:10:42;9.65;;;4.40;;
35312;SDS011;21425;50.454;30.466;2023-12-20T02:13:08;11.02;;;3.70;;
35312;SDS011;21425;50.454;30.466;2023-12-20T02:15:34;10.25;;;3.88;;
35312;SDS011;21425;50.454;30.466;2023-12-20T02:18:02;6.78;;;3.63;;
35312;SDS011;21425;50.454;30.466;2023-12-20T02:20:28;8.60;;;4.15;;
35312;SDS011;21425;50.454;30.466;2023-12-20T02:22:54;10.45;;;4.80;;
35312;SDS011;21425;50.454;30.466;2023-12-20T02:25:20;6.45;;;3.45;;
35312;SDS011;21425;50.454;30.466;2023-12-20T02:27:46;13.25;;;5.00;;
35312;SDS011;21425;50.454;30.466;2023-12-20T02:30:12;11.63;;;4.72;;
35312;SDS011;21425;50.454;30.466;2023-12-20T02:32:37;9.57;;;4.53;;
35312;SDS011;21425;50.454;30.466;2023-12-20T02:35:03;10.98;;;4.80;;
35312;SDS011;21425;50.454;30.466;2023-12-20T02:37:29;10.90;;;4.85;;
35312;SDS011;21425;50.454;30.466;2023-12-20T02:39:54;14.73;;;4.70;;
35312;SDS011;21425;50.454;30.466;2023-12-20T02:42:20;9.52;;;4.72;;
35312;SDS011;21425;50.454;30.466;2023-12-20T02:44:46;10.93;;;3.80;;
35312;SDS011;21425;50.454;30.466;2023-12-20T02:47:12;11.98;;;5.22;;
35312;SDS011;21425;50.454;30.466;2023-12-20T02:49:38;12.27;;;4.15;;
35312;SDS011;21425;50.454;30.466;2023-12-20T02:52:04;11.50;;;5.43;;
35312;SDS011;21425;50.454;30.466;2023-12-20T02:54:30;12.15;;;4.85;;
35312;SDS011;21425;50.454;30.466;2023-12-20T02:56:56;10.05;;;5.32;;
35312;SDS011;21425;50.454;30.466;2023-12-20T02:59:21;8.45;;;3.90;;
35312;SDS011;21425;50.454;30.466;2023-12-20T03:01:47;13.90;;;5.43;;
35312;SDS011;21425;50.454;30.466;2023-12-20T03:04:13;10.88;;;4.88;;
35312;SDS011;21425;50.454;30.466;2023-12-20T03:06:39;12.02;;;5.68;;
35312;SDS011;21425;50.454;30.466;2023-12-20T03:09:04;13.65;;;5.07;;
35312;SDS011;21425;50.454;30.466;2023-12-20T03:11:30;12.18;;;5.57;;
35312;SDS011;21425;50.454;30.466;2023-12-20T03:13:56;12.13;;;5.03;;
35312;SDS011;21425;50.454;30.466;2023-12-20T03:16:22;12.13;;;6.00;;
35312;SDS011;21425;50.454;30.466;2023-12-20T03:18:49;11.40;;;5.13;;
35312;SDS011;21425;50.454;30.466;2023-12-20T03:21:15;15.23;;;6.57;;
35312;SDS011;21425;50.454;30.466;2023-12-20T03:23:40;11.98;;;5.35;;
35312;SDS011;21425;50.454;30.466;2023-12-20T03:26:06;14.95;;;6.68;;
35312;SDS011;21425;50.454;30.466;2023-12-20T03:28:33;15.25;;;5.45;;
35312;SDS011;21425;50.454;30.466;2023-12-20T03:30:59;16.63;;;6.38;;
35312;SDS011;21425;50.454;30.466;2023-12-20T03:33:25;15.60;;;6.07;;
35312;SDS011;21425;50.454;30.466;2023-12-20T03:35:51;11.57;;;5.80;;
35312;SDS011;21425;50.454;30.466;2023-12-20T03:38:16;9.50;;;4.65;;
35312;SDS011;21425;50.454;30.466;2023-12-20T03:40:42;11.75;;;6.22;;
35312;SDS011;21425;50.454;30.466;2023-12-20T03:43:08;11.70;;;5.18;;
35312;SDS011;21425;50.454;30.466;2023-12-20T03:45:33;13.50;;;5.82;;
35312;SDS011;21425;50.454;30.466;2023-12-20T03:47:59;12.88;;;5.57;;
35312;SDS011;21425;50.454;30.466;2023-12-20T03:50:25;10.77;;;5.43;;
35312;SDS011;21425;50.454;30.466;2023-12-20T03:52:51;12.45;;;5.47;;
35312;SDS011;21425;50.454;30.466;2023-12-20T03:55:17;9.38;;;4.28;;
35312;SDS011;21425;50.454;30.466;2023-12-20T03:57:43;9.35;;;4.93;;
35312;SDS011;21425;50.454;30.466;2023-12-20T04:00:08;12.00;;;6.35;;
35312;SDS011;21425;50.454;30.466;2023-12-20T04:02:38;10.20;;;5.07;;
35312;SDS011;21425;50.454;30.466;2023-12-20T04:05:04;9.82;;;5.47;;
35312;SDS011;21425;50.454;30.466;2023-12-20T04:07:31;14.07;;;6.43;;
35312;SDS011;21425;50.454;30.466;2023-12-20T04:09:56;16.75;;;6.95;;
35312;SDS011;21425;50.454;30.466;2023-12-20T04:12:22;12.35;;;5.07;;
35312;SDS011;21425;50.454;30.466;2023-12-20T04:14:48;14.32;;;7.30;;
35312;SDS011;21425;50.454;30.466;2023-12-20T04:17:14;12.13;;;6.55;;
35312;SDS011;21425;50.454;30.466;2023-12-20T04:19:41;11.52;;;5.20;;
35312;SDS011;21425;50.454;30.466;2023-12-20T04:22:07;14.25;;;5.50;;
35312;SDS011;21425;50.454;30.466;2023-12-20T04:24:33;11.68;;;4.97;;
35312;SDS011;21425;50.454;30.466;2023-12-20T04:26:58;11.90;;;5.88;;
35312;SDS011;21425;50.454;30.466;2023-12-20T04:29:24;11.63;;;5.38;;
35312;SDS011;21425;50.454;30.466;2023-12-20T04:31:50;11.75;;;5.43;;
35312;SDS011;21425;50.454;30.466;2023-12-20T04:34:19;12.90;;;6.40;;
35312;SDS011;21425;50.454;30.466;2023-12-20T04:36:45;11.30;;;5.47;;
35312;SDS011;21425;50.454;30.466;2023-12-20T04:39:11;11.10;;;6.05;;
35312;SDS011;21425;50.454;30.466;2023-12-20T04:41:38;16.35;;;4.53;;
35312;SDS011;21425;50.454;30.466;2023-12-20T04:44:03;13.68;;;4.85;;
35312;SDS011;21425;50.454;30.466;2023-12-20T04:46:29;10.30;;;5.15;;
35312;SDS011;21425;50.454;30.466;2023-12-20T04:48:55;11.30;;;5.10;;
35312;SDS011;21425;50.454;30.466;2023-12-20T04:51:20;10.32;;;4.72;;
35312;SDS011;21425;50.454;30.466;2023-12-20T04:53:46;13.95;;;5.22;;
35312;SDS011;21425;50.454;30.466;2023-12-20T04:56:12;12.85;;;5.18;;
35312;SDS011;21425;50.454;30.466;2023-12-20T04:58:37;20.83;;;5.43;;
35312;SDS011;21425;50.454;30.466;2023-12-20T05:01:04;9.38;;;5.22;;
35312;SDS011;21425;50.454;30.466;2023-12-20T05:03:30;9.60;;;5.70;;
35312;SDS011;21425;50.454;30.466;2023-12-20T05:05:56;11.63;;;6.15;;
35312;SDS011;21425;50.454;30.466;2023-12-20T05:08:23;11.43;;;6.05;;
35312;SDS011;21425;50.454;30.466;2023-12-20T05:10:48;17.90;;;6.70;;
35312;SDS011;21425;50.454;30.466;2023-12-20T05:13:14;18.02;;;6.95;;
35312;SDS011;21425;50.454;30.466;2023-12-20T05:15:40;14.85;;;6.90;;
35312;SDS011;21425;50.454;30.466;2023-12-20T05:18:06;15.25;;;6.03;;
35312;SDS011;21425;50.454;30.466;2023-12-20T05:20:32;14.40;;;6.38;;
35312;SDS011;21425;50.454;30.466;2023-12-20T05:22:57;17.92;;;7.88;;
35312;SDS011;21425;50.454;30.466;2023-12-20T05:25:23;19.50;;;7.20;;
35312;SDS011;21425;50.454;30.466;2023-12-20T05:27:48;11.82;;;4.88;;
35312;SDS011;21425;50.454;30.466;2023-12-20T05:30:15;12.57;;;5.63;;
35312;SDS011;21425;50.454;30.466;2023-12-20T05:32:41;14.65;;;6.68;;
35312;SDS011;21425;50.454;30.466;2023-12-20T05:35:06;18.67;;;6.95;;
35312;SDS011;21425;50.454;30.466;2023-12-20T05:37:32;19.67;;;7.57;;
35312;SDS011;21425;50.454;30.466;2023-12-20T05:39:57;13.40;;;5.47;;
35312;SDS011;21425;50.454;30.466;2023-12-20T05:42:23;10.00;;;4.40;;
35312;SDS011;21425;50.454;30.466;2023-12-20T05:44:49;12.77;;;6.50;;
35312;SDS011;21425;50.454;30.466;2023-12-20T05:47:15;10.13;;;4.40;;
35312;SDS011;21425;50.454;30.466;2023-12-20T05:49:40;10.80;;;5.38;;
35312;SDS011;21425;50.454;30.466;2023-12-20T05:52:06;9.75;;;5.28;;
35312;SDS011;21425;50.454;30.466;2023-12-20T05:54:32;14.13;;;5.78;;
35312;SDS011;21425;50.454;30.466;2023-12-20T05:56:57;11.68;;;6.05;;
35312;SDS011;21425;50.454;30.466;2023-12-20T05:59:23;9.35;;;4.70;;
35312;SDS011;21425;50.454;30.466;2023-12-20T06:01:49;15.27;;;6.45;;
35312;SDS011;21425;50.454;30.466;2023-12-20T06:04:15;11.50;;;6.95;;
35312;SDS011;21425;50.454;30.466;2023-12-20T06:06:41;13.52;;;6.30;;
35312;SDS011;21425;50.454;30.466;2023-12-20T06:09:07;15.13;;;6.05;;
35312;SDS011;21425;50.454;30.466;2023-12-20T06:11:33;12.25;;;4.65;;
35312;SDS011;21425;50.454;30.466;2023-12-20T06:13:59;15.63;;;6.05;;
35312;SDS011;21425;50.454;30.466;2023-12-20T06:16:25;11.73;;;5.80;;
35312;SDS011;21425;50.454;30.466;2023-12-20T06:18:51;16.85;;;6.28;;
35312;SDS011;21425;50.454;30.466;2023-12-20T06:21:17;13.32;;;6.32;;
35312;SDS011;21425;50.454;30.466;2023-12-20T06:23:43;9.80;;;4.53;;
35312;SDS011;21425;50.454;30.466;2023-12-20T06:26:09;12.80;;;5.53;;
35312;SDS011;21425;50.454;30.466;2023-12-20T06:28:34;11.43;;;5.00;;
35312;SDS011;21425;50.454;30.466;2023-12-20T06:31:00;12.65;;;5.40;;
35312;SDS011;21425;50.454;30.466;2023-12-20T06:33:26;15.60;;;6.13;;
35312;SDS011;21425;50.454;30.466;2023-12-20T06:35:52;17.08;;;6.05;;
35312;SDS011;21425;50.454;30.466;2023-12-20T06:38:18;14.50;;;5.90;;
35312;SDS011;21425;50.454;30.466;2023-12-20T06:40:44;16.60;;;6.35;;
35312;SDS011;21425;50.454;30.466;2023-12-20T06:43:11;12.82;;;6.53;;
35312;SDS011;21425;50.454;30.466;2023-12-20T06:45:38;11.57;;;5.30;;
35312;SDS011;21425;50.454;30.466;2023-12-20T06:48:04;10.02;;;4.95;;
35312;SDS011;21425;50.454;30.466;2023-12-20T06:50:30;13.13;;;5.80;;
35312;SDS011;21425;50.454;30.466;2023-12-20T06:52:56;12.05;;;6.47;;
35312;SDS011;21425;50.454;30.466;2023-12-20T06:55:23;10.93;;;5.10;;
35312;SDS011;21425;50.454;30.466;2023-12-20T06:57:48;11.52;;;4.85;;
35312;SDS011;21425;50.454;30.466;2023-12-20T07:00:14;13.90;;;5.53;;
35312;SDS011;21425;50.454;30.466;2023-12-20T07:02:40;14.45;;;6.30;;
35312;SDS011;21425;50.454;30.466;2023-12-20T07:05:06;13.75;;;7.35;;
35312;SDS011;21425;50.454;30.466;2023-12-20T07:07:32;18.10;;;8.05;;
35312;SDS011;21425;50.454;30.466;2023-12-20T07:09:57;15.98;;;7.03;;
35312;SDS011;21425;50.454;30.466;2023-12-20T07:12:23;12.85;;;6.45;;
35312;SDS011;21425;50.454;30.466;2023-12-20T07:14:49;14.63;;;6.55;;
35312;SDS011;21425;50.454;30.466;2023-12-20T07:17:15;12.10;;;5.72;;
35312;SDS011;21425;50.454;30.466;2023-12-20T07:19:41;14.50;;;5.38;;
35312;SDS011;21425;50.454;30.466;2023-12-20T07:22:07;13.80;;;5.97;;
35312;SDS011;21425;50.454;30.466;2023-12-20T07:24:34;11.85;;;5.72;;
35312;SDS011;21425;50.454;30.466;2023-12-20T07:27:00;12.20;;;5.97;;
35312;SDS011;21425;50.454;30.466;2023-12-20T07:29:26;14.00;;;6.20;;
35312;SDS011;21425;50.454;30.466;2023-12-20T07:31:52;12.07;;;5.80;;
35312;SDS011;21425;50.454;30.466;2023-12-20T07:34:19;17.90;;;5.97;;
35312;SDS011;21425;50.454;30.466;2023-12-20T07:36:45;17.48;;;7.03;;
35312;SDS011;21425;50.454;30.466;2023-12-20T07:39:12;17.42;;;6.40;;
35312;SDS011;21425;50.454;30.466;2023-12-20T07:41:38;11.88;;;5.50;;
35312;SDS011;21425;50.454;30.466;2023-12-20T07:44:04;14.23;;;5.72;;
35312;SDS011;21425;50.454;30.466;2023-12-20T07:46:31;7.20;;;3.47;;
35312;SDS011;21425;50.454;30.466;2023-12-20T07:48:57;15.73;;;5.72;;
35312;SDS011;21425;50.454;30.466;2023-12-20T07:51:23;12.18;;;6.88;;
35312;SDS011;21425;50.454;30.466;2023-12-20T07:53:49;10.65;;;4.47;;
35312;SDS011;21425;50.454;30.466;2023-12-20T07:56:18;9.55;;;5.15;;
35312;SDS011;21425;50.454;30.466;2023-12-20T07:58:45;11.95;;;5.70;;
35312;SDS011;21425;50.454;30.466;2023-12-20T08:01:11;10.93;;;4.80;;
35312;SDS011;21425;50.454;30.466;2023-12-20T08:03:37;10.73;;;4.93;;
35312;SDS011;21425;50.454;30.466;2023-12-20T08:06:03;9.18;;;4.35;;
35312;SDS011;21425;50.454;30.466;2023-12-20T08:08:30;10.27;;;4.45;;
35312;SDS011;21425;50.454;30.466;2023-12-20T08:10:55;11.40;;;4.82;;
35312;SDS011;21425;50.454;30.466;2023-12-20T08:13:24;14.52;;;5.82;;
35312;SDS011;21425;50.454;30.466;2023-12-20T08:15:51;12.75;;;5.90;;
35312;SDS011;21425;50.454;30.466;2023-12-20T08:18:20;10.57;;;5.90;;
35312;SDS011;21425;50.454;30.466;2023-12-20T08:20:46;11.25;;;6.10;;
35312;SDS011;21425;50.454;30.466;2023-12-20T08:23:13;12.68;;;5.85;;
35312;SDS011;21425;50.454;30.466;2023-12-20T08:25:39;10.45;;;5.15;;
35312;SDS011;21425;50.454;30.466;2023-12-20T08:28:04;18.50;;;6.70;;
35312;SDS011;21425;50.454;30.466;2023-12-20T08:30:32;31.05;;;5.18;;
35312;SDS011;21425;50.454;30.466;2023-12-20T08:33:01;8.80;;;5.20;;
35312;SDS011;21425;50.454;30.466;2023-12-20T08:35:27;9.38;;;5.18;;
35312;SDS011;21425;50.454;30.466;2023-12-20T08:37:53;10.55;;;5.28;;
35312;SDS011;21425;50.454;30.466;2023-12-20T08:40:19;8.88;;;4.30;;
35312;SDS011;21425;50.454;30.466;2023-12-20T08:42:45;14.45;;;5.15;;
35312;SDS011;21425;50.454;30.466;2023-12-20T08:45:11;11.80;;;5.15;;
35312;SDS011;21425;50.454;30.466;2023-12-20T08:47:37;8.93;;;4.55;;
35312;SDS011;21425;50.454;30.466;2023-12-20T08:50:03;16.80;;;6.15;;
35312;SDS011;21425;50.454;30.466;2023-12-20T08:52:28;13.70;;;5.90;;
35312;SDS011;21425;50.454;30.466;2023-12-20T08:54:54;14.30;;;6.82;;
35312;SDS011;21425;50.454;30.466;2023-12-20T08:57:20;11.52;;;5.18;;
35312;SDS011;21425;50.454;30.466;2023-12-20T08:59:50;10.05;;;4.70;;
35312;SDS011;21425;50.454;30.466;2023-12-20T09:02:16;17.73;;;6.40;;
35312;SDS011;21425;50.454;30.466;2023-12-20T09:04:42;11.77;;;5.70;;
35312;SDS011;21425;50.454;30.466;2023-12-20T09:07:27;12.50;;;5.05;;
35312;SDS011;21425;50.454;30.466;2023-12-20T09:09:55;10.05;;;4.70;;
35312;SDS011;21425;50.454;30.466;2023-12-20T09:12:21;12.85;;;5.30;;
35312;SDS011;21425;50.454;30.466;2023-12-20T09:14:47;15.27;;;5.97;;
35312;SDS011;21425;50.454;30.466;2023-12-20T09:17:18;14.20;;;6.63;;
35312;SDS011;21425;50.454;30.466;2023-12-20T09:19:44;15.23;;;5.28;;
35312;SDS011;21425;50.454;30.466;2023-12-20T09:22:10;14.70;;;4.93;;
35312;SDS011;21425;50.454;30.466;2023-12-20T09:24:36;12.70;;;6.50;;
35312;SDS011;21425;50.454;30.466;2023-12-20T09:27:03;11.13;;;5.60;;
35312;SDS011;21425;50.454;30.466;2023-12-20T09:29:30;15.20;;;6.47;;
35312;SDS011;21425;50.454;30.466;2023-12-20T09:31:56;11.20;;;5.78;;
35312;SDS011;21425;50.454;30.466;2023-12-20T09:34:22;13.52;;;5.40;;
35312;SDS011;21425;50.454;30.466;2023-12-20T09:36:49;13.00;;;5.55;;
35312;SDS011;21425;50.454;30.466;2023-12-20T09:39:15;12.93;;;5.72;;
35312;SDS011;21425;50.454;30.466;2023-12-20T09:41:46;12.13;;;5.47;;
35312;SDS011;21425;50.454;30.466;2023-12-20T09:44:35;5.60;;;2.83;;
35312;SDS011;21425;50.454;30.466;2023-12-20T09:47:05;7.90;;;4.70;;
35312;SDS011;21425;50.454;30.466;2023-12-20T09:49:31;10.68;;;5.03;;
35312;SDS011;21425;50.454;30.466;2023-12-20T09:51:58;11.68;;;5.63;;
35312;SDS011;21425;50.454;30.466;2023-12-20T09:54:25;9.10;;;4.28;;
35312;SDS011;21425;50.454;30.466;2023-12-20T09:56:53;8.40;;;4.68;;
35312;SDS011;21425;50.454;30.466;2023-12-20T09:59:19;7.28;;;3.45;;
35312;SDS011;21425;50.454;30.466;2023-12-20T10:01:45;8.95;;;4.20;;
35312;SDS011;21425;50.454;30.466;2023-12-20T10:04:12;8.52;;;4.95;;
35312;SDS011;21425;50.454;30.466;2023-12-20T10:06:41;12.80;;;4.88;;
35312;SDS011;21425;50.454;30.466;2023-12-20T10:09:08;11.60;;;4.80;;
35312;SDS011;21425;50.454;30.466;2023-12-20T10:11:38;10.02;;;5.13;;
35312;SDS011;21425;50.454;30.466;2023-12-20T10:14:05;14.02;;;5.22;;
35312;SDS011;21425;50.454;30.466;2023-12-20T10:16:31;9.27;;;4.82;;
35312;SDS011;21425;50.454;30.466;2023-12-20T10:18:58;8.02;;;4.05;;
35312;SDS011;21425;50.454;30.466;2023-12-20T10:21:25;10.23;;;4.97;;
35312;SDS011;21425;50.454;30.466;2023-12-20T10:23:51;11.07;;;4.75;;
35312;SDS011;21425;50.454;30.466;2023-12-20T10:26:24;8.27;;;3.85;;
35312;SDS011;21425;50.454;30.466;2023-12-20T10:28:52;9.38;;;5.07;;
35312;SDS011;21425;50.454;30.466;2023-12-20T10:33:53;8.45;;;4.30;;
35312;SDS011;21425;50.454;30.466;2023-12-20T10:36:19;10.77;;;4.85;;
35312;SDS011;21425;50.454;30.466;2023-12-20T10:38:45;12.07;;;5.53;;
35312;SDS011;21425;50.454;30.466;2023-12-20T10:41:12;12.95;;;5.25;;
35312;SDS011;21425;50.454;30.466;2023-12-20T10:43:42;8.80;;;5.05;;
35312;SDS011;21425;50.454;30.466;2023-12-20T10:46:08;12.02;;;5.40;;
35312;SDS011;21425;50.454;30.466;2023-12-20T10:48:35;11.30;;;5.07;;
35312;SDS011;21425;50.454;30.466;2023-12-20T10:51:01;14.38;;;4.88;;
35312;SDS011;21425;50.454;30.466;2023-12-20T10:53:28;13.57;;;5.05;;
35312;SDS011;21425;50.454;30.466;2023-12-20T10:55:55;13.15;;;6.03;;
35312;SDS011;21425;50.454;30.466;2023-12-20T10:58:24;11.63;;;5.15;;
35312;SDS011;21425;50.454;30.466;2023-12-20T11:00:50;12.80;;;5.50;;
35312;SDS011;21425;50.454;30.466;2023-12-20T11:03:26;13.02;;;5.10;;
35312;SDS011;21425;50.454;30.466;2023-12-20T11:08:32;11.05;;;6.32;;
35312;SDS011;21425;50.454;30.466;2023-12-20T11:11:20;8.90;;;3.97;;
35312;SDS011;21425;50.454;30.466;2023-12-20T11:14:03;10.95;;;5.07;;
35312;SDS011;21425;50.454;30.466;2023-12-20T11:16:36;11.30;;;4.97;;
35312;SDS011;21425;50.454;30.466;2023-12-20T11:19:05;13.35;;;5.97;;
35312;SDS011;21425;50.454;30.466;2023-12-20T11:21:31;10.82;;;4.22;;
35312;SDS011;21425;50.454;30.466;2023-12-20T11:23:57;10.75;;;5.93;;
35312;SDS011;21425;50.454;30.466;2023-12-20T11:26:26;11.57;;;4.95;;
35312;SDS011;21425;50.454;30.466;2023-12-20T11:29:29;12.13;;;4.70;;
35312;SDS011;21425;50.454;30.466;2023-12-20T11:31:57;9.68;;;5.03;;
35312;SDS011;21425;50.454;30.466;2023-12-20T11:34:26;15.55;;;6.90;;
35312;SDS011;21425;50.454;30.466;2023-12-20T11:37:00;14.80;;;5.40;;
35312;SDS011;21425;50.454;30.466;2023-12-20T11:39:27;13.85;;;5.88;;
35312;SDS011;21425;50.454;30.466;2023-12-20T11:41:56;12.15;;;5.53;;
35312;SDS011;21425;50.454;30.466;2023-12-20T11:44:22;12.05;;;5.90;;
35312;SDS011;21425;50.454;30.466;2023-12-20T11:46:50;9.48;;;5.13;;
35312;SDS011;21425;50.454;30.466;2023-12-20T11:49:16;8.60;;;4.40;;
35312;SDS011;21425;50.454;30.466;2023-12-20T11:51:41;12.95;;;5.43;;
35312;SDS011;21425;50.454;30.466;2023-12-20T11:54:08;12.48;;;6.22;;
35312;SDS011;21425;50.454;30.466;2023-12-20T11:56:35;11.00;;;6.03;;
35312;SDS011;21425;50.454;30.466;2023-12-20T11:59:01;8.13;;;4.45;;
35312;SDS011;21425;50.454;30.466;2023-12-20T12:01:27;9.27;;;3.75;;
35312;SDS011;21425;50.454;30.466;2023-12-20T12:04:02;11.07;;;5.43;;
35312;SDS011;21425;50.454;30.466;2023-12-20T12:06:28;11.40;;;4.95;;
35312;SDS011;21425;50.454;30.466;2023-12-20T12:08:54;17.02;;;5.75;;
35312;SDS011;21425;50.454;30.466;2023-12-20T12:11:20;11.38;;;3.78;;
35312;SDS011;21425;50.454;30.466;2023-12-20T12:13:46;11.25;;;5.30;;
35312;SDS011;21425;50.454;30.466;2023-12-20T12:16:13;14.48;;;4.45;;
35312;SDS011;21425;50.454;30.466;2023-12-20T12:18:43;13.63;;;5.00;;
35312;SDS011;21425;50.454;30.466;2023-12-20T12:21:09;12.73;;;4.53;;
35312;SDS011;21425;50.454;30.466;2023-12-20T12:23:35;7.65;;;4.07;;
35312;SDS011;21425;50.454;30.466;2023-12-20T12:26:03;9.57;;;4.32;;
35312;SDS011;21425;50.454;30.466;2023-12-20T12:28:29;7.20;;;4.13;;
35312;SDS011;21425;50.454;30.466;2023-12-20T12:30:59;13.48;;;4.72;;
35312;SDS011;21425;50.454;30.466;2023-12-20T12:33:25;13.02;;;5.22;;
35312;SDS011;21425;50.454;30.466;2023-12-20T12:35:51;9.57;;;4.63;;
35312;SDS011;21425;50.454;30.466;2023-12-20T12:38:20;11.25;;;4.50;;
35312;SDS011;21425;50.454;30.466;2023-12-20T12:40:46;15.85;;;5.20;;
35312;SDS011;21425;50.454;30.466;2023-12-20T12:43:12;10.73;;;4.45;;
35312;SDS011;21425;50.454;30.466;2023-12-20T12:45:38;10.05;;;4.93;;
35312;SDS011;21425;50.454;30.466;2023-12-20T12:48:04;9.85;;;4.93;;
35312;SDS011;21425;50.454;30.466;2023-12-20T12:50:30;9.85;;;5.05;;
35312;SDS011;21425;50.454;30.466;2023-12-20T12:52:56;9.00;;;5.07;;
35312;SDS011;21425;50.454;30.466;2023-12-20T12:55:22;8.57;;;3.70;;
35312;SDS011;21425;50.454;30.466;2023-12-20T12:57:48;8.10;;;4.40;;
35312;SDS011;21425;50.454;30.466;2023-12-20T13:00:14;7.78;;;4.47;;
35312;SDS011;21425;50.454;30.466;2023-12-20T13:02:39;9.98;;;4.30;;
35312;SDS011;21425;50.454;30.466;2023-12-20T13:05:07;11.00;;;4.32;;
35312;SDS011;21425;50.454;30.466;2023-12-20T13:07:33;13.70;;;4.65;;
35312;SDS011;21425;50.454;30.466;2023-12-20T13:09:59;9.23;;;3.85;;
35312;SDS011;21425;50.454;30.466;2023-12-20T13:12:25;6.90;;;3.95;;
35312;SDS011;21425;50.454;30.466;2023-12-20T13:14:51;12.48;;;4.43;;
35312;SDS011;21425;50.454;30.466;2023-12-20T13:17:17;9.90;;;4.70;;
35312;SDS011;21425;50.454;30.466;2023-12-20T13:19:43;13.82;;;5.95;;
35312;SDS011;21425;50.454;30.466;2023-12-20T13:22:09;29.35;;;9.27;;
35312;SDS011;21425;50.454;30.466;2023-12-20T13:24:35;29.08;;;8.90;;
35312;SDS011;21425;50.454;30.466;2023-12-20T13:27:01;41.25;;;12.57;;
35312;SDS011;21425;50.454;30.466;2023-12-20T13:29:27;45.83;;;13.50;;
35312;SDS011;21425;50.454;30.466;2023-12-20T13:31:54;44.55;;;11.93;;
35312;SDS011;21425;50.454;30.466;2023-12-20T13:34:19;34.88;;;10.50;;
35312;SDS011;21425;50.454;30.466;2023-12-20T13:36:45;27.20;;;8.90;;
35312;SDS011;21425;50.454;30.466;2023-12-20T13:39:12;24.23;;;9.65;;
35312;SDS011;21425;50.454;30.466;2023-12-20T13:41:38;29.60;;;8.98;;
35312;SDS011;21425;50.454;30.466;2023-12-20T13:44:04;26.92;;;9.15;;
35312;SDS011;21425;50.454;30.466;2023-12-20T13:46:30;19.35;;;8.30;;
35312;SDS011;21425;50.454;30.466;2023-12-20T13:48:56;20.52;;;8.23;;
35312;SDS011;21425;50.454;30.466;2023-12-20T13:51:22;23.83;;;8.77;;
35312;SDS011;21425;50.454;30.466;2023-12-20T13:53:48;23.60;;;8.40;;
35312;SDS011;21425;50.454;30.466;2023-12-20T13:56:14;21.50;;;8.98;;
35312;SDS011;21425;50.454;30.466;2023-12-20T13:58:40;21.83;;;8.57;;
35312;SDS011;21425;50.454;30.466;2023-12-20T14:01:07;30.40;;;9.70;;
35312;SDS011;21425;50.454;30.466;2023-12-20T14:03:34;23.27;;;10.30;;
35312;SDS011;21425;50.454;30.466;2023-12-20T14:06:00;26.45;;;11.80;;
35312;SDS011;21425;50.454;30.466;2023-12-20T14:08:26;28.00;;;11.45;;
35312;SDS011;21425;50.454;30.466;2023-12-20T14:10:52;30.48;;;12.05;;
35312;SDS011;21425;50.454;30.466;2023-12-20T14:13:18;27.20;;;10.82;;
35312;SDS011;21425;50.454;30.466;2023-12-20T14:15:44;29.55;;;11.57;;
35312;SDS011;21425;50.454;30.466;2023-12-20T14:18:11;29.75;;;11.27;;
35312;SDS011;21425;50.454;30.466;2023-12-20T14:20:39;25.38;;;10.50;;
35312;SDS011;21425;50.454;30.466;2023-12-20T14:23:07;30.15;;;10.85;;
35312;SDS011;21425;50.454;30.466;2023-12-20T14:25:34;22.25;;;10.63;;